Terminal Aerodrome Forecast
Issued by NWS Wilmington, OH

Current Version | Previous Version | Graphics & Text | Print | Product List | Glossary On
Versions: 1 2 3 4 5 6 7 8 9 10 11 12 13 14 15
000
FTUS41 KILN 211100
TAFDAY
TAF
KDAY 211137Z 2112/2212 34008KT P6SM OVC035
      TEMPO 2112/2115 BKN015
     FM211600 35008KT P6SM BKN035
     FM212300 30012KT P6SM SCT040
     FM220500 27005KT P6SM FEW040=

USA.gov is the U.S. government's official web portal to all federal, state and local government web resources and services.